Time;durP1;ratioP1;P1;durP2;ratioP2;P2;SDS_P1;SDS_P2;PMS_P1;PMS_P2;Temp;Humidity;BMP_temperature;BMP_pressure;BME280_temperature;BME280_humidity;BME280_pressure;Samples;Min_cycle;Max_cycle;Signal;HPM_P1;HPM_P2
2024/02/27 00:01:06;;;;;;;3.57;2.10;;;;;;;-145.69;58.03;52246.34;5095079;28;20206;-81
2024/02/27 00:03:33;;;;;;;3.40;2.20;;;;;;;-145.69;57.73;52238.44;5095034;28;20205;-81
2024/02/27 00:06:00;;;;;;;3.03;2.00;;;;;;;-145.69;57.38;52218.63;5114823;27;20266;-81
2024/02/27 00:08:27;;;;;;;3.67;2.07;;;;;;;-145.69;57.03;52210.72;5115611;28;20201;-81
2024/02/27 00:10:53;;;;;;;5.60;2.20;;;;;;;-145.69;56.88;52218.63;5115535;28;20250;-81
2024/02/27 00:13:20;;;;;;;3.23;1.87;;;;;;;-145.69;57.63;52230.50;5115548;28;20223;-81
2024/02/27 00:15:47;;;;;;;5.70;2.33;;;;;;;-145.69;57.71;52222.59;5115362;28;20222;-81
2024/02/27 00:18:16;;;;;;;4.80;2.23;;;;;;;-145.69;57.56;52238.44;5115199;28;20214;-81
2024/02/27 00:20:42;;;;;;;7.83;2.40;;;;;;;-145.69;57.50;52226.53;5124828;27;20204;-81
2024/02/27 00:23:10;;;;;;;5.17;1.90;;;;;;;-145.69;56.99;52204.75;5135682;27;20204;-81
2024/02/27 00:25:37;;;;;;;2.57;1.60;;;;;;;-145.69;56.56;52177.03;5122781;27;20197;-81
2024/02/27 00:28:04;;;;;;;3.17;2.00;;;;;;;-145.69;56.97;52256.25;5115287;28;20204;-81
2024/02/27 00:30:30;;;;;;;3.47;1.80;;;;;;;-145.69;56.54;52240.41;5114901;28;20197;-81
2024/02/27 00:32:57;;;;;;;3.33;2.03;;;;;;;-145.69;56.67;52242.38;5115064;28;20206;-81
2024/02/27 00:35:23;;;;;;;2.87;2.00;;;;;;;-145.69;57.05;52234.47;5122887;27;20195;-81
2024/02/27 00:37:49;;;;;;;2.63;1.70;;;;;;;-145.69;57.15;52222.59;5128408;27;20197;-81
2024/02/27 00:40:17;;;;;;;6.20;1.73;;;;;;;-145.69;57.21;52224.56;5114738;28;20262;-81
2024/02/27 00:42:45;;;;;;;2.70;1.70;;;;;;;-145.69;57.25;52220.59;5115056;28;20202;-82
2024/02/27 00:45:11;;;;;;;3.40;1.97;;;;;;;-145.69;57.40;52246.34;5114818;28;20193;-81
2024/02/27 00:47:38;;;;;;;5.77;2.60;;;;;;;-145.69;57.15;52238.44;5114901;28;20194;-81
2024/02/27 00:50:05;;;;;;;5.63;2.60;;;;;;;-145.69;57.18;52224.56;5114468;28;20193;-81
2024/02/27 00:52:32;;;;;;;3.93;2.47;;;;;;;-145.69;57.66;52238.44;5112778;28;20707;-81
2024/02/27 00:54:58;;;;;;;8.23;2.50;;;;;;;-145.69;57.63;52238.44;5114626;28;20652;-81
2024/02/27 00:57:26;;;;;;;3.57;2.37;;;;;;;-145.69;57.93;52228.53;5114252;28;20572;-81
2024/02/27 00:59:52;;;;;;;3.80;2.40;;;;;;;-145.69;58.12;52238.44;5114514;28;20361;-81
2024/02/27 01:02:19;;;;;;;6.20;2.30;;;;;;;-145.69;58.07;52230.50;5114318;28;20197;-81
2024/02/27 01:04:45;;;;;;;3.20;2.10;;;;;;;-145.69;57.51;52210.72;5114128;28;20196;-81
2024/02/27 01:07:12;;;;;;;4.03;2.10;;;;;;;-145.69;57.63;52246.34;5114116;28;20193;-81
2024/02/27 01:09:38;;;;;;;3.57;2.30;;;;;;;-145.69;57.64;52242.38;5114716;27;20197;-81
2024/02/27 01:12:06;;;;;;;2.40;1.80;;;;;;;-145.69;57.23;52240.41;5116240;27;20246;-82
2024/02/27 01:14:34;;;;;;;2.63;1.50;;;;;;;-145.69;57.18;52220.59;5113111;28;20548;-82
2024/02/27 01:17:01;;;;;;;2.23;1.40;;;;;;;-145.69;57.11;52210.72;5113318;28;20297;-81
2024/02/27 01:19:27;;;;;;;1.70;1.50;;;;;;;-145.69;56.60;52230.50;5114001;28;20201;-81
2024/02/27 01:21:58;;;;;;;3.00;1.90;;;;;;;-145.69;56.70;52222.59;5113957;28;20198;-81
2024/02/27 01:24:24;;;;;;;3.83;1.40;;;;;;;-145.69;56.06;52234.47;5114053;28;20208;-81
2024/02/27 01:26:51;;;;;;;3.17;1.87;;;;;;;-145.69;55.46;52264.16;5114200;28;20201;-81
2024/02/27 01:29:17;;;;;;;1.93;1.03;;;;;;;-145.69;55.57;52218.63;5113420;27;20204;-80
2024/02/27 01:31:45;;;;;;;1.73;1.10;;;;;;;-145.69;55.47;52218.63;5114493;27;20208;-81
2024/02/27 01:34:12;;;;;;;1.83;1.00;;;;;;;-145.69;55.33;52256.25;5113953;28;20699;-80
2024/02/27 01:36:38;;;;;;;1.00;0.90;;;;;;;-145.69;55.49;52220.59;5113723;28;20221;-80
2024/02/27 01:39:05;;;;;;;1.77;0.93;;;;;;;-145.69;55.48;52266.16;5113719;28;20205;-80
2024/02/27 01:41:31;;;;;;;1.00;0.90;;;;;;;-145.69;55.46;52226.53;5113925;28;20232;-81
2024/02/27 01:43:58;;;;;;;2.73;1.30;;;;;;;-145.69;55.90;52218.63;5113706;28;20209;-81
2024/02/27 01:46:25;;;;;;;0.87;0.87;;;;;;;-145.69;56.23;52258.22;5113255;28;20185;-80
2024/02/27 01:48:55;;;;;;;1.83;1.00;;;;;;;-145.69;55.92;52244.38;5113412;28;20823;-80
2024/02/27 01:51:23;;;;;;;0.93;0.87;;;;;;;-145.69;56.07;52252.28;5113287;28;20221;-80
2024/02/27 01:53:53;;;;;;;1.73;0.90;;;;;;;-145.69;55.81;52210.72;5112929;27;20205;-81
2024/02/27 01:56:21;;;;;;;1.67;1.30;;;;;;;-145.69;56.57;52234.47;5113256;28;20721;-80
2024/02/27 01:58:48;;;;;;;2.50;1.10;;;;;;;-145.69;56.35;52270.13;5113422;28;20601;-81
2024/02/27 02:01:15;;;;;;;2.10;1.30;;;;;;;-145.69;56.67;52228.53;5113133;28;20205;-80
2024/02/27 02:03:42;;;;;;;4.77;2.50;;;;;;;-145.69;57.28;52258.22;5113618;28;20258;-81
2024/02/27 02:06:10;;;;;;;7.23;2.90;;;;;;;-145.69;58.05;52226.53;5113272;28;20221;-80
2024/02/27 02:08:37;;;;;;;6.67;2.97;;;;;;;-145.69;58.96;52250.31;5113342;28;20592;-80
2024/02/27 02:11:06;;;;;;;4.93;2.77;;;;;;;-145.69;59.33;52242.38;5112867;28;20199;-82
2024/02/27 02:13:33;;;;;;;7.20;2.93;;;;;;;-145.69;59.35;52264.16;5113126;28;20544;-82
2024/02/27 02:16:00;;;;;;;7.53;3.33;;;;;;;-145.69;59.96;52240.41;5112782;28;20201;-81
2024/02/27 02:18:26;;;;;;;9.00;3.23;;;;;;;-145.69;60.27;52264.16;5112948;28;20198;-81
2024/02/27 02:20:54;;;;;;;8.17;3.63;;;;;;;-145.69;60.38;52262.19;5113302;28;20555;-81
2024/02/27 02:23:21;;;;;;;6.90;3.50;;;;;;;-145.69;60.78;52248.34;5112988;28;20200;-81
2024/02/27 02:25:48;;;;;;;6.43;3.53;;;;;;;-145.69;61.39;52262.19;5113179;28;20201;-80
2024/02/27 02:28:15;;;;;;;7.80;3.33;;;;;;;-145.69;61.89;52246.34;5112428;28;20197;-81
2024/02/27 02:30:42;;;;;;;5.83;3.40;;;;;;;-145.69;61.75;52258.22;5112275;28;20254;-81
2024/02/27 02:33:11;;;;;;;6.93;3.60;;;;;;;-145.69;62.51;52214.66;5112990;28;20227;-80
2024/02/27 02:35:37;;;;;;;6.20;3.43;;;;;;;-145.69;62.99;52242.38;5113257;28;20203;-81
2024/02/27 02:38:05;;;;;;;8.43;3.60;;;;;;;-145.69;62.61;52230.50;5112860;28;20579;-81
2024/02/27 02:40:32;;;;;;;8.77;3.60;;;;;;;-145.69;62.14;52254.28;5112647;28;20198;-81
2024/02/27 02:42:58;;;;;;;6.23;3.40;;;;;;;-145.69;62.86;52254.28;5112758;28;20196;-82
2024/02/27 02:45:24;;;;;;;6.80;3.50;;;;;;;-145.69;62.65;52274.06;5113228;28;20208;-81
2024/02/27 02:47:50;;;;;;;8.03;3.70;;;;;;;-145.69;62.77;52234.47;5112130;28;20197;-80
2024/02/27 02:50:17;;;;;;;9.93;3.70;;;;;;;-145.69;62.80;52226.53;5112658;28;20200;-81
2024/02/27 02:52:44;;;;;;;6.90;3.97;;;;;;;-145.69;63.03;52262.19;5112639;28;20228;-80
2024/02/27 02:55:12;;;;;;;6.80;3.70;;;;;;;-145.69;62.74;52242.38;5112246;28;20233;-80
2024/02/27 02:57:39;;;;;;;7.73;3.60;;;;;;;-145.69;62.96;52244.38;5116100;28;20224;-80
2024/02/27 03:00:07;;;;;;;9.30;3.83;;;;;;;-145.69;63.56;52232.50;5112280;28;20657;-80
2024/02/27 03:02:34;;;;;;;6.30;3.60;;;;;;;-145.69;63.49;52291.91;5112421;28;20197;-81
2024/02/27 03:05:00;;;;;;;10.87;4.30;;;;;;;-145.69;63.76;52244.38;5112854;28;20209;-81
2024/02/27 03:07:27;;;;;;;7.30;3.63;;;;;;;-145.69;63.45;52246.34;5112211;28;20201;-81
2024/02/27 03:09:53;;;;;;;6.67;3.63;;;;;;;-145.69;63.81;52242.38;5112552;28;20198;-81
2024/02/27 03:12:22;;;;;;;8.47;4.00;;;;;;;-145.69;64.10;52262.19;5119389;28;20192;-81
2024/02/27 03:14:49;;;;;;;11.37;3.83;;;;;;;-145.69;64.00;52230.50;5112581;28;20198;-81
2024/02/27 03:17:16;;;;;;;7.97;4.20;;;;;;;-145.69;64.11;52270.13;5112270;28;20224;-81
2024/02/27 03:19:43;;;;;;;6.17;3.63;;;;;;;-145.69;64.29;52278.03;5112371;28;20205;-80
2024/02/27 03:22:10;;;;;;;7.40;4.00;;;;;;;-145.69;64.70;52270.13;5112496;28;20201;-80
2024/02/27 03:24:36;;;;;;;6.57;3.47;;;;;;;-145.69;64.27;52270.13;5112136;28;20202;-80
2024/02/27 03:27:03;;;;;;;5.57;3.53;;;;;;;-145.69;64.59;52285.97;5112294;28;20274;-80
2024/02/27 03:29:31;;;;;;;7.57;3.77;;;;;;;-145.69;64.99;52242.38;5112313;28;20201;-80
2024/02/27 03:31:58;;;;;;;8.20;4.17;;;;;;;-145.69;65.00;52266.16;5112598;28;20667;-80
2024/02/27 03:34:26;;;;;;;6.77;4.07;;;;;;;-145.69;64.90;52254.28;5112646;28;20205;-80
2024/02/27 03:36:52;;;;;;;7.30;4.10;;;;;;;-145.69;64.79;52244.38;5113815;28;20273;-80
2024/02/27 03:39:19;;;;;;;6.33;3.80;;;;;;;-145.69;64.73;52254.28;5115964;28;20197;-80
2024/02/27 03:41:45;;;;;;;5.27;3.40;;;;;;;-145.69;65.36;52256.25;5122028;27;20201;-80
2024/02/27 03:44:12;;;;;;;4.63;3.57;;;;;;;-145.69;65.35;52238.44;5125936;27;20209;-80
2024/02/27 03:46:39;;;;;;;11.07;3.83;;;;;;;-145.69;64.76;52246.34;5115754;28;20205;-80
2024/02/27 03:49:06;;;;;;;5.57;3.47;;;;;;;-145.69;65.25;52226.53;5115607;28;20194;-80
2024/02/27 03:51:32;;;;;;;4.77;3.07;;;;;;;-145.69;65.00;52234.47;5115828;28;20229;-80
2024/02/27 03:53:59;;;;;;;7.47;3.50;;;;;;;-145.69;64.53;52252.28;5115995;28;20209;-80
2024/02/27 03:56:26;;;;;;;5.27;3.30;;;;;;;-145.69;64.22;52278.03;5116096;28;20200;-82
2024/02/27 03:58:53;;;;;;;6.37;3.70;;;;;;;-145.69;64.11;52272.09;5115558;28;20231;-81
2024/02/27 04:01:19;;;;;;;4.87;3.07;;;;;;;-145.69;63.62;52274.06;5115892;28;20193;-81
2024/02/27 04:03:47;;;;;;;8.20;3.53;;;;;;;-145.69;63.81;52250.31;5115059;27;20250;-81
2024/02/27 04:06:14;;;;;;;6.53;3.87;;;;;;;-145.69;63.99;52220.59;5115777;28;20284;-81
2024/02/27 04:08:40;;;;;;;5.73;3.03;;;;;;;-145.69;64.12;52226.53;5115576;28;20198;-81
2024/02/27 04:11:07;;;;;;;5.87;3.40;;;;;;;-145.69;64.10;52262.19;5114989;28;20205;-81
2024/02/27 04:13:33;;;;;;;5.20;3.47;;;;;;;-145.69;63.89;52264.16;5115468;28;20197;-81
2024/02/27 04:16:00;;;;;;;6.37;3.50;;;;;;;-145.69;64.21;52248.34;5115457;28;20197;-81
2024/02/27 04:18:26;;;;;;;5.53;3.20;;;;;;;-145.69;64.31;52214.66;5115298;28;20228;-80
2024/02/27 04:20:54;;;;;;;6.60;2.77;;;;;;;-145.69;64.19;52264.16;5114682;28;20533;-80
2024/02/27 04:23:20;;;;;;;5.13;2.93;;;;;;;-145.69;64.29;52226.53;5115250;28;20205;-81
2024/02/27 04:25:47;;;;;;;4.33;2.83;;;;;;;-145.69;64.88;52242.38;5115472;27;20292;-81
2024/02/27 04:28:16;;;;;;;6.13;3.27;;;;;;;-145.69;64.66;52246.34;5115021;28;20194;-81
2024/02/27 04:30:42;;;;;;;7.90;3.20;;;;;;;-145.69;64.86;52218.63;5114891;28;20611;-81
2024/02/27 04:33:08;;;;;;;5.73;3.20;;;;;;;-145.69;64.30;52293.88;5115048;28;20221;-80
2024/02/27 04:35:35;;;;;;;3.33;2.53;;;;;;;-145.69;64.40;52264.16;5114984;28;20225;-80
2024/02/27 04:38:03;;;;;;;4.83;3.20;;;;;;;-145.69;64.61;52254.28;5115139;28;20240;-81
2024/02/27 04:40:29;;;;;;;5.43;3.23;;;;;;;-145.69;64.99;52293.88;5114734;28;20234;-81
2024/02/27 04:42:56;;;;;;;4.00;3.00;;;;;;;-145.69;64.38;52246.34;5114445;28;20209;-80
2024/02/27 04:45:22;;;;;;;6.17;3.40;;;;;;;-145.69;64.24;52262.19;5114432;28;20235;-82
2024/02/27 04:47:49;;;;;;;4.77;2.63;;;;;;;-145.69;64.29;52230.50;5114247;28;20543;-82
2024/02/27 04:50:15;;;;;;;5.37;2.87;;;;;;;-145.69;64.54;52246.34;5114532;28;20197;-81
2024/02/27 04:52:42;;;;;;;8.83;3.53;;;;;;;-145.69;64.43;52258.22;5114628;28;20236;-82
2024/02/27 04:55:10;;;;;;;6.50;3.50;;;;;;;-145.69;64.06;52260.22;5114399;28;20208;-81
2024/02/27 04:57:36;;;;;;;8.30;3.87;;;;;;;-145.69;64.01;52280.00;5114447;27;20217;-81
2024/02/27 05:00:04;;;;;;;13.60;5.40;;;;;;;-145.69;63.91;52242.38;5114181;27;20571;-81
2024/02/27 05:02:31;;;;;;;15.33;5.57;;;;;;;-145.69;64.46;52274.06;5114021;27;20255;-82
2024/02/27 05:04:57;;;;;;;12.73;5.73;;;;;;;-145.69;64.41;52256.25;5113918;28;20201;-81
2024/02/27 05:07:23;;;;;;;9.73;4.53;;;;;;;-145.69;63.95;52276.06;5114379;28;20205;-81
2024/02/27 05:09:50;;;;;;;8.00;3.87;;;;;;;-145.69;64.18;52268.13;5113841;28;20228;-81
2024/02/27 05:12:18;;;;;;;6.97;3.30;;;;;;;-145.69;64.30;52270.13;5114619;28;20193;-81
2024/02/27 05:14:44;;;;;;;5.87;3.00;;;;;;;-145.69;64.42;52270.13;5114311;28;20201;-82
2024/02/27 05:17:11;;;;;;;4.50;2.77;;;;;;;-145.69;64.49;52266.16;5129334;27;20222;-82
2024/02/27 05:19:37;;;;;;;4.83;3.10;;;;;;;-145.69;64.76;52254.28;5129422;27;20640;-81
2024/02/27 05:22:04;;;;;;;4.77;3.07;;;;;;;-145.69;64.55;52262.19;5113993;28;20209;-81
2024/02/27 05:24:30;;;;;;;4.73;2.70;;;;;;;-145.69;64.64;52285.97;5114100;28;20201;-82
2024/02/27 05:26:57;;;;;;;3.83;2.70;;;;;;;-145.69;64.74;52240.41;5113986;28;20193;-82
2024/02/27 05:29:25;;;;;;;7.13;2.87;;;;;;;-145.69;64.90;52272.09;5113790;28;20212;-81
2024/02/27 05:31:52;;;;;;;5.83;2.90;;;;;;;-145.69;64.52;52254.28;5113923;28;20208;-83
2024/02/27 05:34:18;;;;;;;3.33;2.20;;;;;;;-145.69;64.66;52246.34;5113833;28;20769;-81
2024/02/27 05:36:45;;;;;;;3.97;2.20;;;;;;;-145.69;64.96;52285.97;5113763;28;20258;-82
2024/02/27 05:39:11;;;;;;;3.97;2.40;;;;;;;-145.69;64.44;52240.41;5113288;28;20229;-81
2024/02/27 05:41:38;;;;;;;3.93;2.20;;;;;;;-145.69;64.86;52248.34;5113601;28;20200;-81
2024/02/27 05:44:04;;;;;;;4.40;2.40;;;;;;;-145.69;64.59;52252.28;5113686;28;20198;-81
2024/02/27 05:46:32;;;;;;;3.80;2.70;;;;;;;-145.69;64.74;52266.16;5113349;28;20198;-81
2024/02/27 05:48:59;;;;;;;7.10;4.60;;;;;;;-145.69;64.64;52262.19;5113849;28;20201;-81
2024/02/27 05:51:25;;;;;;;10.73;3.47;;;;;;;-145.69;64.56;52266.16;5113001;28;20317;-81
2024/02/27 05:53:52;;;;;;;5.33;3.67;;;;;;;-145.69;64.51;52230.50;5113719;28;20205;-81
2024/02/27 05:56:21;;;;;;;6.67;4.30;;;;;;;-145.69;64.44;52252.28;5113558;28;20655;-80
2024/02/27 05:58:48;;;;;;;9.40;6.63;;;;;;;-145.69;64.28;52266.16;5112876;28;20318;-80
2024/02/27 06:01:15;;;;;;;5.73;4.33;;;;;;;-145.69;64.13;52240.41;5112752;28;20691;-81
2024/02/27 06:03:43;;;;;;;7.87;3.80;;;;;;;-145.69;64.70;52230.50;5113324;28;20220;-82
2024/02/27 06:06:12;;;;;;;5.70;3.33;;;;;;;-145.69;64.31;52254.28;5113109;28;20201;-82
2024/02/27 06:08:38;;;;;;;4.03;2.83;;;;;;;-145.69;64.44;52278.03;5113693;28;20194;-81
2024/02/27 06:11:05;;;;;;;5.90;3.70;;;;;;;-145.69;64.80;52258.22;5112199;28;20197;-81
2024/02/27 06:13:31;;;;;;;4.50;3.17;;;;;;;-145.69;64.42;52250.31;5113413;28;20197;-81
2024/02/27 06:15:58;;;;;;;5.53;3.10;;;;;;;-145.69;64.70;52244.38;5113200;28;20198;-82
2024/02/27 06:18:24;;;;;;;4.90;2.80;;;;;;;-145.69;64.56;52236.44;5113018;28;20229;-82
2024/02/27 06:23:36;;;;;;;5.20;3.27;;;;;;;-145.69;64.92;52266.16;5112850;28;20208;-81
2024/02/27 06:26:03;;;;;;;6.23;3.50;;;;;;;-145.69;64.32;52246.34;5113007;28;20205;-81
2024/02/27 06:28:31;;;;;;;5.90;3.40;;;;;;;-145.69;64.41;52278.03;5113151;28;20233;-81
2024/02/27 06:30:57;;;;;;;5.47;3.40;;;;;;;-145.69;64.54;52278.03;5112583;28;20225;-83
2024/02/27 06:33:23;;;;;;;9.87;5.40;;;;;;;-145.69;64.24;52274.06;5113155;28;20655;-81
2024/02/27 06:35:51;;;;;;;12.03;6.00;;;;;;;-145.69;63.49;52293.88;5112733;28;20201;-81
2024/02/27 06:38:18;;;;;;;14.50;6.77;;;;;;;-145.69;62.87;52250.31;5113296;28;20213;-80
2024/02/27 06:40:44;;;;;;;14.43;6.97;;;;;;;-145.69;63.01;52282.00;5112787;28;20254;-81
2024/02/27 06:43:12;;;;;;;16.30;6.27;;;;;;;-145.69;63.09;52278.03;5112319;28;20197;-80
2024/02/27 06:45:40;;;;;;;16.10;7.30;;;;;;;-145.69;63.03;52244.38;5112791;28;20197;-81
2024/02/27 06:48:09;;;;;;;16.60;7.83;;;;;;;-145.69;62.81;52285.97;5112688;27;20216;-80
2024/02/27 06:50:35;;;;;;;27.00;10.83;;;;;;;-145.69;62.69;52254.28;5112834;27;20254;-80
2024/02/27 06:53:04;;;;;;;20.13;9.03;;;;;;;-145.69;62.62;52268.13;5112433;28;20254;-80
2024/02/27 06:55:31;;;;;;;14.57;6.83;;;;;;;-145.69;63.01;52282.00;5112926;28;20193;-81
2024/02/27 06:57:57;;;;;;;13.97;6.97;;;;;;;-145.69;62.85;52250.31;5112422;28;20229;-81
2024/02/27 07:00:24;;;;;;;11.20;5.67;;;;;;;-145.69;62.71;52258.22;5112988;28;20194;-80
2024/02/27 07:02:50;;;;;;;12.40;5.90;;;;;;;-145.69;62.50;52268.13;5112569;28;20198;-81
2024/02/27 07:05:17;;;;;;;10.87;5.90;;;;;;;-145.69;61.84;52246.34;5112486;28;20198;-81
2024/02/27 07:07:43;;;;;;;12.23;6.20;;;;;;;-145.69;61.75;52276.06;5112447;28;20202;-81
2024/02/27 07:10:13;;;;;;;12.60;5.87;;;;;;;-145.69;60.71;52252.28;5112625;28;20200;-80
2024/02/27 07:12:41;;;;;;;12.73;6.07;;;;;;;-145.69;60.86;52262.19;5114412;28;20232;-81
2024/02/27 07:15:08;;;;;;;11.40;5.77;;;;;;;-145.69;60.26;52246.34;5116140;28;20651;-80
2024/02/27 07:17:35;;;;;;;13.47;6.57;;;;;;;-145.69;60.11;52262.19;5116349;28;20208;-80
2024/02/27 07:20:03;;;;;;;12.57;6.67;;;;;;;-145.69;59.65;52270.13;5116658;28;20262;-80
2024/02/27 07:22:31;;;;;;;13.67;6.10;;;;;;;-145.69;59.56;52248.34;5119958;27;20236;-80
2024/02/27 07:24:57;;;;;;;10.13;5.13;;;;;;;-145.69;59.06;52258.22;5095766;28;20628;-81
2024/02/27 07:27:25;;;;;;;13.70;6.10;;;;;;;-145.69;58.61;52270.13;5110049;28;20205;-80
2024/02/27 07:29:52;;;;;;;12.83;6.17;;;;;;;-145.69;58.01;52266.16;5116243;28;20193;-80
2024/02/27 07:32:18;;;;;;;12.00;6.13;;;;;;;-145.69;58.13;52246.34;5116227;28;20204;-80
2024/02/27 07:34:46;;;;;;;13.70;6.30;;;;;;;-145.69;56.58;52254.28;5116186;28;20205;-81
2024/02/27 07:37:14;;;;;;;18.20;6.10;;;;;;;-145.69;56.00;52250.31;5120713;27;20186;-81
2024/02/27 07:39:41;;;;;;;13.43;6.33;;;;;;;-145.69;56.02;52266.16;5116208;28;20261;-82
2024/02/27 07:42:07;;;;;;;11.33;5.83;;;;;;;-145.69;55.57;52252.28;5116011;28;20201;-81
2024/02/27 07:44:35;;;;;;;11.80;6.17;;;;;;;-145.69;55.25;52262.19;5116172;28;20238;-81
2024/02/27 07:47:02;;;;;;;13.23;6.80;;;;;;;-145.69;54.56;52208.72;5115993;28;20284;-80
2024/02/27 07:49:28;;;;;;;13.63;6.63;;;;;;;-145.69;54.10;52260.22;5115972;28;20205;-80
2024/02/27 07:51:55;;;;;;;13.00;6.60;;;;;;;-145.69;54.26;52194.88;5116307;27;20225;-80
2024/02/27 07:54:22;;;;;;;13.97;6.43;;;;;;;-145.69;53.98;52270.13;5115584;28;20243;-80
2024/02/27 07:56:48;;;;;;;12.90;5.83;;;;;;;-145.69;53.96;52242.38;5115784;28;20246;-81
2024/02/27 07:59:15;;;;;;;12.50;5.93;;;;;;;-145.69;53.67;52246.34;5115747;28;20278;-80
2024/02/27 08:01:43;;;;;;;12.93;6.93;;;;;;;-145.69;53.88;52202.78;5123299;27;20546;-82
2024/02/27 08:04:09;;;;;;;9.73;5.07;;;;;;;-145.69;53.85;52222.59;5132769;27;20200;-82
2024/02/27 08:06:38;;;;;;;11.47;5.73;;;;;;;-145.69;53.45;52220.59;5114728;27;20614;-82
2024/02/27 08:09:05;;;;;;;11.27;5.70;;;;;;;-145.69;53.84;52246.34;5115414;28;20683;-82
2024/02/27 08:11:31;;;;;;;10.57;5.87;;;;;;;-145.69;53.45;52226.53;5115814;28;20628;-82
2024/02/27 08:14:00;;;;;;;9.60;5.27;;;;;;;-145.69;53.77;52270.13;5118982;27;20288;-82
2024/02/27 08:16:26;;;;;;;12.50;6.07;;;;;;;-145.69;53.58;52228.53;5115451;28;20201;-82
2024/02/27 08:18:54;;;;;;;12.43;6.13;;;;;;;-145.69;53.77;52254.28;5115535;28;20228;-81
2024/02/27 08:21:21;;;;;;;11.70;5.40;;;;;;;-145.69;54.02;52242.38;5115454;28;20193;-82
2024/02/27 08:23:47;;;;;;;15.23;6.40;;;;;;;-145.69;52.84;52232.50;5115372;28;20250;-81
2024/02/27 08:26:14;;;;;;;14.97;6.83;;;;;;;-145.69;53.57;52262.19;5114767;27;20254;-81
2024/02/27 08:28:40;;;;;;;15.23;7.13;;;;;;;-145.69;52.95;52220.59;5114909;28;20201;-82
2024/02/27 08:31:07;;;;;;;14.10;6.80;;;;;;;-145.69;52.80;52238.44;5115102;28;20194;-81
2024/02/27 08:33:36;;;;;;;15.80;6.60;;;;;;;-145.69;53.20;52194.88;5115524;28;20220;-81
2024/02/27 08:36:04;;;;;;;15.60;6.83;;;;;;;-145.69;52.35;52208.72;5115138;28;20247;-82
2024/02/27 08:38:30;;;;;;;17.07;6.60;;;;;;;-145.69;52.49;52190.91;5115246;28;20226;-82
2024/02/27 08:40:57;;;;;;;14.97;7.13;;;;;;;-145.69;52.08;52202.78;5115120;28;20647;-81
2024/02/27 08:43:23;;;;;;;14.07;6.87;;;;;;;-145.69;52.97;52210.72;5115047;27;20228;-82
2024/02/27 08:45:50;;;;;;;12.27;6.10;;;;;;;-145.69;52.94;52204.75;5114605;28;20197;-81
2024/02/27 08:48:16;;;;;;;10.87;5.80;;;;;;;-145.69;52.96;52214.66;5114646;28;20197;-81
2024/02/27 08:50:45;;;;;;;13.70;5.93;;;;;;;-145.69;51.74;52222.59;5114784;28;20204;-82
2024/02/27 08:53:13;;;;;;;13.73;6.03;;;;;;;-145.69;52.04;52216.66;5114806;28;20231;-83
2024/02/27 08:55:40;;;;;;;14.20;6.13;;;;;;;-145.69;51.43;52252.28;5114875;28;20205;-83
2024/02/27 08:58:06;;;;;;;13.13;6.20;;;;;;;-145.69;51.49;52226.53;5114232;27;20185;-82
2024/02/27 09:00:34;;;;;;;17.47;6.90;;;;;;;-145.69;52.17;52232.50;5114583;28;20217;-82
2024/02/27 09:03:01;;;;;;;14.93;6.53;;;;;;;-145.69;51.96;52200.81;5117600;27;20193;-82
2024/02/27 09:05:30;;;;;;;15.03;7.00;;;;;;;-145.69;52.50;52238.44;5135328;27;20201;-81
2024/02/27 09:07:57;;;;;;;16.83;7.60;;;;;;;-145.69;52.52;52226.53;5135217;27;20292;-81
2024/02/27 09:10:25;;;;;;;16.17;8.70;;;;;;;-145.69;53.47;52218.63;5128591;27;20439;-81
2024/02/27 09:12:52;;;;;;;17.37;8.00;;;;;;;-145.69;53.31;52222.59;5114403;28;20216;-81
2024/02/27 09:15:21;;;;;;;16.50;7.83;;;;;;;-145.69;53.26;52210.72;5114109;28;20202;-81
2024/02/27 09:17:48;;;;;;;19.77;8.07;;;;;;;-145.69;53.19;52250.31;5113420;28;20223;-81
2024/02/27 09:20:17;;;;;;;15.87;7.60;;;;;;;-145.69;52.76;52230.50;5093795;28;20233;-82
2024/02/27 09:22:43;;;;;;;16.40;8.37;;;;;;;-145.69;52.39;52208.72;5096208;28;20585;-81
2024/02/27 09:25:10;;;;;;;14.67;8.10;;;;;;;-145.69;52.84;52202.78;5109628;28;20255;-81
2024/02/27 09:27:38;;;;;;;14.27;7.67;;;;;;;-145.69;52.46;52190.91;5114134;28;20201;-82
2024/02/27 09:30:06;;;;;;;16.30;7.47;;;;;;;-145.69;51.75;52194.88;5113806;28;20209;-83
2024/02/27 09:32:32;;;;;;;18.77;8.07;;;;;;;-145.69;51.82;52226.53;5114158;28;20197;-82
2024/02/27 09:34:59;;;;;;;15.67;8.07;;;;;;;-145.69;52.04;52204.75;5099079;28;20251;-82
2024/02/27 09:37:25;;;;;;;17.57;8.97;;;;;;;-145.69;52.03;52188.91;5093592;28;20194;-82
2024/02/27 09:39:53;;;;;;;15.80;8.17;;;;;;;-145.69;51.40;52224.56;5093933;28;20237;-82
2024/02/27 09:42:20;;;;;;;17.60;8.40;;;;;;;-145.69;51.28;52194.88;5093935;28;20206;-82
2024/02/27 09:44:52;;;;;;;18.63;8.50;;;;;;;-145.69;50.54;52210.72;5093369;28;20587;-82
2024/02/27 09:47:24;;;;;;;19.87;8.40;;;;;;;-145.69;51.06;52208.72;5107667;28;20221;-82
2024/02/27 09:49:52;;;;;;;19.73;9.27;;;;;;;-145.69;51.17;52218.63;5113799;28;20193;-81
2024/02/27 09:52:20;;;;;;;17.93;8.27;;;;;;;-145.69;50.55;52196.84;5113710;28;20625;-82
2024/02/27 09:54:48;;;;;;;17.50;8.77;;;;;;;-145.69;50.75;52182.97;5113298;28;20284;-82
2024/02/27 09:57:16;;;;;;;18.07;8.10;;;;;;;-145.69;50.77;52171.09;5113380;28;20651;-83
2024/02/27 09:59:43;;;;;;;17.20;8.53;;;;;;;-145.69;50.68;52214.66;5113713;28;20270;-81
2024/02/27 10:02:13;;;;;;;17.73;8.17;;;;;;;-145.69;50.93;52190.91;5114459;27;20208;-82
2024/02/27 10:04:41;;;;;;;17.47;9.17;;;;;;;-145.69;50.51;52202.78;5113083;28;20201;-82
2024/02/27 10:07:10;;;;;;;15.17;7.87;;;;;;;-145.69;50.17;52210.72;5113631;28;20680;-82
2024/02/27 10:09:42;;;;;;;18.57;8.97;;;;;;;-145.69;48.89;52190.91;5113478;28;20551;-82
2024/02/27 10:12:11;;;;;;;18.97;8.43;;;;;;;-145.69;50.06;52246.34;5113274;28;20204;-82
2024/02/27 10:14:38;;;;;;;17.97;8.10;;;;;;;-145.69;49.88;52194.88;5112580;28;20197;-83
2024/02/27 10:17:05;;;;;;;18.03;8.13;;;;;;;-145.69;49.73;52175.06;5113275;28;20300;-82
2024/02/27 10:19:34;;;;;;;16.47;8.57;;;;;;;-145.69;49.06;52186.94;5113266;28;20225;-82
2024/02/27 10:22:02;;;;;;;15.07;7.83;;;;;;;-145.69;48.46;52190.91;5117279;27;20193;-82
2024/02/27 10:24:29;;;;;;;16.70;8.03;;;;;;;-145.69;47.85;52190.91;5117472;27;20663;-82
2024/02/27 10:27:01;;;;;;;15.60;7.87;;;;;;;-145.69;46.76;52188.91;5113315;28;20193;-83
2024/02/27 10:29:31;;;;;;;13.80;7.10;;;;;;;-145.69;46.18;52153.28;5113368;28;20233;-82
2024/02/27 10:31:58;;;;;;;13.75;7.97;;;;;;;-145.69;45.29;52155.25;5113128;28;20202;-83
2024/02/27 10:34:26;;;;;;;11.95;6.70;;;;;;;-145.69;45.36;52163.19;5112627;28;20198;-84
2024/02/27 10:36:59;;;;;;;14.90;6.70;;;;;;;-145.69;43.83;52177.03;5113431;28;20201;-82
2024/02/27 10:39:27;;;;;;;13.80;7.13;;;;;;;-145.69;44.18;52179.03;5110203;28;20217;-83
2024/02/27 10:41:58;;;;;;;14.77;7.05;;;;;;;-145.69;45.06;52173.09;5112975;28;20261;-80
2024/02/27 10:44:26;;;;;;;11.82;6.70;;;;;;;-145.69;43.84;52137.44;5112451;28;20197;-83
2024/02/27 10:46:55;;;;;;;16.02;7.20;;;;;;;-145.69;43.58;52163.19;5114235;28;20205;-83
2024/02/27 10:49:23;;;;;;;15.02;7.43;;;;;;;-145.69;43.53;52175.06;5117052;28;20201;-83
2024/02/27 10:51:54;;;;;;;16.30;6.88;;;;;;;-145.69;44.25;52153.28;5117053;28;20285;-82
2024/02/27 10:54:42;;;;;;;14.68;7.70;;;;;;;-145.69;44.31;52186.94;5125989;27;20292;-83
2024/02/27 10:57:13;;;;;;;20.63;9.00;;;;;;;-145.69;44.14;52177.03;5101565;28;20197;-80
2024/02/27 10:59:40;;;;;;;16.60;8.35;;;;;;;-145.69;44.71;52184.97;5116355;28;20225;-81
2024/02/27 11:02:17;;;;;;;17.25;8.38;;;;;;;-145.69;45.21;52179.03;5117047;28;20227;-81
2024/02/27 11:04:45;;;;;;;18.65;9.10;;;;;;;-145.69;45.39;52202.78;5116769;28;20227;-82
2024/02/27 11:07:19;;;;;;;18.27;9.00;;;;;;;-145.69;46.00;52123.56;5116833;28;20537;-82
2024/02/27 11:09:51;;;;;;;14.38;8.23;;;;;;;-145.69;46.46;52175.06;5122057;27;20200;-81
2024/02/27 11:12:24;;;;;;;16.27;8.70;;;;;;;-145.69;46.28;52179.03;5137616;27;20193;-82
2024/02/27 11:15:00;;;;;;;15.47;8.50;;;;;;;-145.69;45.83;52177.03;5120789;27;20189;-82
2024/02/27 11:17:34;;;;;;;18.77;9.00;;;;;;;-145.69;46.22;52161.19;5116286;28;20199;-81